createdAt,value
2023-04-15T00:02:00.946Z,71.15
2023-04-15T00:04:32.081Z,70.91
2023-04-15T00:07:00.723Z,71.03
2023-04-15T00:09:28.729Z,71.39
2023-04-15T00:11:56.484Z,71.43
2023-04-15T00:14:24.180Z,71.30
2023-04-15T00:16:56.323Z,70.68
2023-04-15T00:19:25.492Z,70.69
2023-04-15T00:21:53.330Z,70.18
2023-04-15T00:24:21.394Z,69.94
2023-04-15T00:26:49.565Z,70.25
2023-04-15T00:29:17.468Z,69.69
2023-04-15T00:31:46.215Z,69.95
2023-04-15T00:34:14.124Z,69.96
2023-04-15T00:36:46.499Z,69.81
2023-04-15T00:39:14.560Z,69.40
2023-04-15T00:41:45.751Z,69.11
2023-04-15T00:44:14.674Z,69.25
2023-04-15T00:46:43.633Z,68.67
2023-04-15T00:49:13.276Z,68.90
2023-04-15T00:51:42.751Z,69.00
2023-04-15T00:54:10.769Z,69.01
2023-04-15T00:56:40.165Z,69.12
2023-04-15T00:59:08.679Z,69.12
2023-04-15T01:01:38.587Z,69.12
2023-04-15T01:04:07.263Z,69.35
2023-04-15T01:06:35.187Z,69.30
2023-04-15T01:09:03.615Z,68.99
2023-04-15T01:11:34.390Z,69.44
2023-04-15T01:14:02.988Z,69.61
2023-04-15T01:16:31.807Z,69.29
2023-04-15T01:19:00.050Z,69.16
2023-04-15T01:21:28.406Z,69.47
2023-04-15T01:23:58.233Z,69.49
2023-04-15T01:26:26.951Z,69.68
2023-04-15T01:28:55.002Z,69.87
2023-04-15T01:31:22.999Z,70.28
2023-04-15T01:33:50.793Z,70.50
2023-04-15T01:36:18.714Z,70.83
2023-04-15T01:38:46.503Z,70.73
2023-04-15T01:41:15.783Z,70.73
2023-04-15T01:43:43.615Z,70.72
2023-04-15T01:46:11.645Z,70.70
2023-04-15T01:48:39.456Z,70.82
2023-04-15T01:51:07.431Z,71.06
2023-04-15T01:53:35.415Z,71.33
2023-04-15T01:56:04.406Z,71.61
2023-04-15T01:58:32.832Z,71.84
2023-04-15T02:01:04.440Z,71.97
2023-04-15T02:03:33.241Z,72.14
2023-04-15T02:06:01.387Z,72.23
2023-04-15T02:08:30.579Z,72.08
2023-04-15T02:10:58.636Z,72.13
2023-04-15T02:13:26.466Z,71.88
2023-04-15T02:15:56.555Z,71.90
2023-04-15T02:18:24.457Z,71.99
2023-04-15T02:20:53.197Z,71.96
2023-04-15T02:23:21.271Z,72.08
2023-04-15T02:25:53.598Z,71.96
2023-04-15T02:28:22.834Z,71.93
2023-04-15T02:30:53.728Z,72.07
2023-04-15T02:33:22.861Z,72.14
2023-04-15T02:35:51.122Z,72.35
2023-04-15T02:38:19.343Z,72.35
2023-04-15T02:40:49.822Z,71.98
2023-04-15T02:43:18.781Z,71.72
2023-04-15T02:45:47.483Z,71.55
2023-04-15T02:48:18.135Z,71.44
2023-04-15T02:50:48.136Z,71.07
2023-04-15T02:53:17.818Z,70.89
2023-04-15T02:55:46.400Z,70.82
2023-04-15T02:58:14.301Z,70.52
2023-04-15T03:00:42.463Z,70.48
2023-04-15T03:03:11.015Z,70.20
2023-04-15T03:05:39.672Z,70.25
2023-04-15T03:08:07.928Z,70.29
2023-04-15T03:10:35.789Z,70.58
2023-04-15T03:13:03.642Z,70.41
2023-04-15T03:15:34.015Z,70.36
2023-04-15T03:18:02.678Z,70.48
2023-04-15T03:20:30.974Z,70.59
2023-04-15T03:22:58.851Z,70.72
2023-04-15T03:25:27.421Z,70.88
2023-04-15T03:27:55.442Z,70.92
2023-04-15T03:30:23.343Z,70.98
2023-04-15T03:32:51.849Z,71.08
2023-04-15T03:35:19.899Z,71.13
2023-04-15T03:37:49.201Z,71.19
2023-04-15T03:40:17.389Z,71.50
2023-04-15T03:42:45.083Z,71.69
2023-04-15T03:45:12.953Z,71.92
2023-04-15T03:47:41.152Z,72.20
2023-04-15T03:50:09.371Z,72.43
2023-04-15T03:52:37.380Z,72.63
2023-04-15T03:55:05.518Z,72.57
2023-04-15T03:57:38.164Z,72.57
2023-04-15T04:00:08.094Z,72.59
2023-04-15T04:02:39.773Z,72.69
2023-04-15T04:05:08.374Z,72.85
2023-04-15T04:07:36.668Z,72.99
2023-04-15T04:10:04.603Z,73.11
2023-04-15T04:12:32.452Z,73.18
2023-04-15T04:15:00.511Z,73.17
2023-04-15T04:17:28.399Z,73.19
2023-04-15T04:19:56.287Z,73.05
2023-04-15T04:22:24.828Z,73.13
2023-04-15T04:24:52.897Z,73.06
2023-04-15T04:27:20.871Z,73.06
2023-04-15T04:29:50.075Z,72.89
2023-04-15T04:32:18.067Z,72.65
2023-04-15T04:34:45.860Z,72.74
2023-04-15T04:37:13.757Z,72.53
2023-04-15T04:39:41.901Z,72.50
2023-04-15T04:42:09.736Z,72.44
2023-04-15T04:44:37.872Z,72.68
2023-04-15T04:47:07.665Z,72.68
2023-04-15T04:49:35.696Z,72.90
2023-04-15T04:52:03.628Z,73.18
2023-04-15T04:54:31.863Z,73.47
2023-04-15T04:57:00.368Z,73.76
2023-04-15T04:59:28.498Z,73.91
2023-04-15T05:01:56.788Z,74.08
2023-04-15T05:04:24.697Z,74.22
2023-04-15T05:06:52.425Z,74.31
2023-04-15T05:09:20.552Z,74.36
2023-04-15T05:11:48.350Z,74.45
2023-04-15T05:14:16.677Z,74.54
2023-04-15T05:16:44.504Z,74.69
2023-04-15T05:19:12.395Z,74.57
2023-04-15T05:21:40.715Z,74.54
2023-04-15T05:24:08.875Z,74.31
2023-04-15T05:26:37.480Z,74.30
2023-04-15T05:29:05.351Z,74.26
2023-04-15T05:31:33.452Z,74.42
2023-04-15T05:34:01.882Z,74.14
2023-04-15T05:36:29.654Z,73.67
2023-04-15T05:38:57.438Z,73.36
2023-04-15T05:41:25.427Z,72.95
2023-04-15T05:43:53.235Z,72.47
2023-04-15T05:46:21.767Z,71.76
2023-04-15T05:48:49.950Z,71.58
2023-04-15T05:51:18.176Z,71.09
2023-04-15T05:53:46.366Z,70.93
2023-04-15T05:56:14.419Z,70.77
2023-04-15T05:58:42.430Z,70.95
2023-04-15T06:01:10.736Z,70.85
2023-04-15T06:03:39.549Z,70.68
2023-04-15T06:06:07.984Z,70.57
2023-04-15T06:08:35.770Z,70.53
2023-04-15T06:11:03.798Z,70.64
2023-04-15T06:13:31.914Z,71.07
2023-04-15T06:16:00.043Z,71.23
2023-04-15T06:18:27.764Z,70.84
2023-04-15T06:20:55.690Z,70.66
2023-04-15T06:23:24.532Z,70.06
2023-04-15T06:25:53.823Z,69.75
2023-04-15T06:28:21.725Z,69.53
2023-04-15T06:30:49.602Z,69.48
2023-04-15T06:33:17.810Z,69.13
2023-04-15T06:35:45.865Z,68.76
2023-04-15T06:38:14.775Z,68.69
2023-04-15T06:40:43.159Z,68.27
2023-04-15T06:43:11.477Z,68.26
2023-04-15T06:45:39.796Z,67.51
2023-04-15T06:48:09.750Z,67.94
2023-04-15T06:50:41.919Z,67.45
2023-04-15T06:53:10.064Z,67.05
2023-04-15T06:55:38.314Z,67.61
2023-04-15T06:58:06.153Z,67.00
2023-04-15T07:00:34.599Z,66.83
2023-04-15T07:03:03.994Z,65.92
2023-04-15T07:05:32.684Z,66.10
2023-04-15T07:08:01.278Z,65.48
2023-04-15T07:10:29.246Z,65.34
2023-04-15T07:12:57.630Z,65.41
2023-04-15T07:15:25.572Z,65.37
2023-04-15T07:17:53.952Z,65.50
2023-04-15T07:20:25.939Z,64.31
2023-04-15T07:22:56.887Z,63.76
2023-04-15T07:25:24.840Z,62.91
2023-04-15T07:27:54.198Z,63.28
2023-04-15T07:30:21.936Z,61.42
2023-04-15T07:32:49.896Z,60.99
2023-04-15T07:35:21.566Z,61.21
2023-04-15T07:37:49.586Z,60.52
2023-04-15T07:40:17.472Z,60.63
2023-04-15T07:42:45.516Z,59.83
2023-04-15T07:45:13.268Z,59.36
2023-04-15T07:47:42.207Z,59.31
2023-04-15T07:50:14.643Z,59.37
2023-04-15T07:52:43.110Z,60.01
2023-04-15T07:55:11.589Z,59.91
2023-04-15T07:57:39.655Z,60.27
2023-04-15T08:00:08.264Z,60.34
2023-04-15T08:02:43.597Z,61.06
2023-04-15T08:05:11.852Z,61.27
2023-04-15T08:07:41.177Z,60.65
2023-04-15T08:10:09.790Z,61.24
2023-04-15T08:12:37.731Z,61.01
2023-04-15T08:15:05.984Z,60.82
2023-04-15T08:17:34.429Z,61.33
2023-04-15T08:20:02.896Z,61.46
2023-04-15T08:22:31.230Z,62.27
2023-04-15T08:24:59.798Z,62.56
2023-04-15T08:27:27.662Z,62.78
2023-04-15T08:29:55.827Z,63.34
2023-04-15T08:32:26.820Z,63.21
2023-04-15T08:34:55.081Z,63.15
2023-04-15T08:37:23.254Z,62.84
2023-04-15T08:39:51.075Z,62.76
2023-04-15T08:42:28.587Z,62.67
2023-04-15T08:44:57.006Z,62.98
2023-04-15T08:47:31.863Z,61.75
2023-04-15T08:50:04.629Z,61.28
2023-04-15T08:52:33.070Z,61.61
2023-04-15T08:55:03.221Z,60.21
2023-04-15T08:57:32.919Z,60.92
2023-04-15T09:00:05.611Z,59.31
2023-04-15T09:02:33.998Z,59.33
2023-04-15T09:05:06.678Z,59.43
2023-04-15T09:07:38.088Z,59.92
2023-04-15T09:10:06.814Z,59.50
2023-04-15T09:12:37.686Z,58.82
2023-04-15T09:15:05.965Z,57.51
2023-04-15T09:17:34.987Z,58.16
2023-04-15T09:20:11.118Z,56.82
2023-04-15T09:22:40.254Z,57.29
2023-04-15T09:25:23.258Z,55.74
2023-04-15T09:27:52.927Z,55.57
2023-04-15T09:30:20.923Z,54.90
2023-04-15T09:32:57.302Z,55.36
2023-04-15T09:35:27.760Z,54.24
2023-04-15T09:38:07.519Z,55.56
2023-04-15T09:40:43.167Z,53.93
2023-04-15T09:43:14.718Z,53.90
2023-04-15T09:45:53.037Z,54.04
2023-04-15T09:48:27.501Z,52.57
2023-04-15T09:51:00.691Z,50.63
2023-04-15T09:53:31.243Z,48.97
2023-04-15T09:56:08.147Z,48.87
2023-04-15T09:58:38.981Z,47.85
2023-04-15T10:01:10.020Z,48.75
2023-04-15T10:03:38.292Z,48.30
2023-04-15T10:06:06.458Z,46.70
2023-04-15T10:08:35.562Z,47.43
2023-04-15T10:11:05.434Z,47.87
2023-04-15T10:13:35.355Z,48.78
2023-04-15T10:16:15.150Z,45.85
2023-04-15T10:18:51.925Z,46.34
2023-04-15T10:21:20.487Z,44.63
2023-04-15T10:23:48.640Z,44.30
2023-04-15T10:26:17.831Z,44.37
2023-04-15T10:28:49.418Z,43.75
2023-04-15T10:31:20.461Z,44.34
2023-04-15T10:33:49.744Z,44.85
2023-04-15T10:36:19.651Z,44.05
2023-04-15T10:38:47.561Z,43.90
2023-04-15T10:41:34.584Z,44.60
2023-04-15T10:44:08.183Z,46.18
2023-04-15T10:46:38.815Z,46.54
2023-04-15T10:49:15.372Z,46.14
2023-04-15T10:51:45.704Z,46.07
2023-04-15T10:54:24.709Z,46.35
2023-04-15T10:57:14.143Z,46.42
2023-04-15T11:00:09.380Z,45.43
2023-04-15T11:02:41.399Z,45.86
2023-04-15T11:05:10.829Z,46.74
2023-04-15T11:07:49.648Z,44.45
2023-04-15T11:10:26.634Z,44.29
2023-04-15T11:12:58.987Z,43.92
2023-04-15T11:15:43.257Z,44.99
2023-04-15T11:18:28.270Z,46.76
2023-04-15T11:21:04.477Z,46.28
2023-04-15T11:23:44.463Z,46.41
2023-04-15T11:26:12.826Z,46.48
2023-04-15T11:28:43.392Z,47.83
2023-04-15T11:31:16.756Z,48.31
2023-04-15T11:34:03.078Z,47.12
2023-04-15T11:36:32.460Z,48.90
2023-04-15T11:39:01.506Z,48.66
2023-04-15T11:41:29.744Z,48.56
2023-04-15T11:43:57.698Z,47.87
2023-04-15T11:46:33.871Z,47.60
2023-04-15T11:49:02.966Z,46.97
2023-04-15T11:51:34.517Z,47.53
2023-04-15T11:54:02.942Z,48.67
2023-04-15T11:56:32.146Z,48.94
2023-04-15T11:59:00.870Z,51.18
2023-04-15T12:01:37.323Z,50.59
2023-04-15T12:04:25.431Z,51.47
2023-04-15T12:06:54.338Z,51.57
2023-04-15T12:09:22.260Z,51.61
2023-04-15T12:11:53.133Z,50.68
2023-04-15T12:14:33.580Z,52.25
2023-04-15T12:17:04.957Z,50.59
2023-04-15T12:19:37.871Z,50.05
2023-04-15T12:22:17.615Z,49.79
2023-04-15T12:24:48.282Z,52.19
2023-04-15T12:27:17.829Z,51.33
2023-04-15T12:29:45.860Z,50.57
2023-04-15T12:32:15.677Z,51.98
2023-04-15T12:34:53.246Z,51.21
2023-04-15T12:37:22.058Z,49.05
2023-04-15T12:39:50.672Z,49.84
2023-04-15T12:42:19.215Z,51.82
2023-04-15T12:44:47.899Z,51.06
2023-04-15T12:47:16.308Z,50.12
2023-04-15T12:49:44.254Z,50.15
2023-04-15T12:52:11.987Z,51.36
2023-04-15T12:54:41.221Z,48.75
2023-04-15T12:57:09.114Z,48.42
2023-04-15T12:59:37.691Z,48.25
2023-04-15T13:02:05.795Z,49.25
2023-04-15T13:04:33.794Z,49.00
2023-04-15T13:07:03.130Z,48.68
2023-04-15T13:09:32.162Z,47.51
2023-04-15T13:12:00.788Z,48.47
2023-04-15T13:14:28.894Z,50.25
2023-04-15T13:16:57.201Z,47.59
2023-04-15T13:19:25.964Z,49.22
2023-04-15T13:21:53.928Z,47.48
2023-04-15T13:24:24.531Z,48.82
2023-04-15T13:26:53.543Z,48.83
2023-04-15T13:29:22.402Z,50.93
2023-04-15T13:31:50.738Z,51.04
2023-04-15T13:34:18.554Z,51.08
2023-04-15T13:36:47.157Z,49.08
2023-04-15T13:39:15.048Z,45.30
2023-04-15T13:41:43.063Z,44.11
2023-04-15T13:44:12.435Z,44.38
2023-04-15T13:46:42.279Z,45.62
2023-04-15T13:49:10.121Z,46.61
2023-04-15T13:51:38.064Z,47.85
2023-04-15T13:54:06.395Z,46.27
2023-04-15T13:56:34.664Z,47.37
2023-04-15T13:59:03.796Z,47.59
2023-04-15T14:01:32.567Z,47.52
2023-04-15T14:04:01.155Z,47.65
2023-04-15T14:06:31.881Z,48.67
2023-04-15T14:08:59.984Z,48.74
2023-04-15T14:11:27.816Z,50.58
2023-04-15T14:13:55.584Z,50.36
2023-04-15T14:16:23.843Z,50.32
2023-04-15T14:18:51.869Z,50.00
2023-04-15T14:21:19.632Z,49.71
2023-04-15T14:23:47.490Z,50.09
2023-04-15T14:26:15.466Z,49.82
2023-04-15T14:28:45.067Z,48.72
2023-04-15T14:31:13.057Z,49.23
2023-04-15T14:33:41.143Z,49.93
2023-04-15T14:36:10.581Z,49.91
2023-04-15T14:38:40.071Z,49.73
2023-04-15T14:41:10.090Z,50.13
2023-04-15T14:43:39.354Z,50.75
2023-04-15T14:46:08.703Z,51.06
2023-04-15T14:48:36.746Z,52.25
2023-04-15T14:51:05.052Z,51.33
2023-04-15T14:53:33.415Z,50.85
2023-04-15T14:56:01.464Z,50.93
2023-04-15T14:58:29.831Z,51.97
2023-04-15T15:00:58.029Z,51.46
2023-04-15T15:03:26.052Z,52.09
2023-04-15T15:05:54.293Z,53.32
2023-04-15T15:08:22.151Z,53.06
2023-04-15T15:10:50.202Z,53.81
2023-04-15T15:13:19.822Z,54.38
2023-04-15T15:15:49.782Z,53.90
2023-04-15T15:18:19.650Z,52.58
2023-04-15T15:20:48.205Z,53.35
2023-04-15T15:23:16.196Z,54.15
2023-04-15T15:25:45.956Z,55.02
2023-04-15T15:28:13.811Z,54.09
2023-04-15T15:30:41.721Z,54.47
2023-04-15T15:33:11.304Z,55.41
2023-04-15T15:35:39.431Z,55.00
2023-04-15T15:38:07.250Z,54.37
2023-04-15T15:40:35.051Z,55.74
2023-04-15T15:43:03.179Z,55.25
2023-04-15T15:45:32.190Z,53.61
2023-04-15T15:48:01.716Z,53.63
2023-04-15T15:50:30.228Z,52.64
2023-04-15T15:52:58.999Z,52.64
2023-04-15T15:55:27.430Z,53.73
2023-04-15T15:57:55.624Z,53.15
2023-04-15T16:00:23.574Z,53.58
2023-04-15T16:03:05.273Z,54.70
2023-04-15T16:05:35.526Z,54.42
2023-04-15T16:08:04.212Z,54.23
2023-04-15T16:10:32.559Z,53.37
2023-04-15T16:13:01.047Z,53.73
2023-04-15T16:15:29.142Z,54.26
2023-04-15T16:17:57.035Z,55.49
2023-04-15T16:20:25.612Z,56.20
2023-04-15T16:22:56.365Z,55.66
2023-04-15T16:25:24.778Z,56.21
2023-04-15T16:28:03.135Z,56.39
2023-04-15T16:30:41.792Z,56.76
2023-04-15T16:33:10.783Z,57.34
2023-04-15T16:35:39.324Z,57.18
2023-04-15T16:38:07.637Z,56.61
2023-04-15T16:40:36.840Z,56.78
2023-04-15T16:43:07.637Z,56.44
2023-04-15T16:45:35.770Z,56.48
2023-04-15T16:48:04.230Z,57.28
2023-04-15T16:50:32.561Z,56.70
2023-04-15T16:53:01.588Z,56.97
2023-04-15T16:55:29.780Z,57.21
2023-04-15T16:58:03.296Z,58.11
2023-04-15T17:00:33.093Z,58.49
2023-04-15T17:03:05.275Z,58.48
2023-04-15T17:05:33.757Z,58.43
2023-04-15T17:08:01.884Z,58.75
2023-04-15T17:10:30.734Z,58.48
2023-04-15T17:12:59.444Z,58.63
2023-04-15T17:15:28.069Z,59.31
2023-04-15T17:17:56.154Z,59.18
2023-04-15T17:20:24.444Z,60.08
2023-04-15T17:22:52.559Z,60.05
2023-04-15T17:25:20.965Z,59.87
2023-04-15T17:27:49.041Z,59.97
2023-04-15T17:30:16.955Z,60.57
2023-04-15T17:32:44.932Z,61.56
2023-04-15T17:35:12.977Z,62.02
2023-04-15T17:37:40.723Z,62.04
2023-04-15T17:40:09.167Z,62.63
2023-04-15T17:42:37.014Z,62.31
2023-04-15T17:45:05.158Z,62.52
2023-04-15T17:47:33.068Z,62.46
2023-04-15T17:50:01.173Z,62.95
2023-04-15T17:52:29.085Z,63.31
2023-04-15T17:54:56.898Z,63.59
2023-04-15T17:57:25.462Z,63.79
2023-04-15T17:59:53.618Z,63.73
2023-04-15T18:02:22.869Z,63.92
2023-04-15T18:04:51.044Z,63.96
2023-04-15T18:07:18.947Z,64.67
2023-04-15T18:09:46.982Z,65.43
2023-04-15T18:12:14.798Z,65.27
2023-04-15T18:14:42.525Z,65.93
2023-04-15T18:17:11.472Z,66.39
2023-04-15T18:19:39.242Z,66.63
2023-04-15T18:22:08.293Z,67.09
2023-04-15T18:24:36.198Z,67.26
2023-04-15T18:27:04.280Z,67.09
2023-04-15T18:29:32.156Z,67.72
2023-04-15T18:32:00.684Z,67.43
2023-04-15T18:34:29.185Z,68.04
2023-04-15T18:36:58.360Z,68.46
2023-04-15T18:39:27.606Z,68.58
2023-04-15T18:41:56.187Z,69.16
2023-04-15T18:44:24.507Z,69.39
2023-04-15T18:46:52.390Z,69.46
2023-04-15T18:49:20.390Z,69.94
2023-04-15T18:51:48.169Z,70.11
2023-04-15T18:54:16.686Z,70.41
2023-04-15T18:56:44.726Z,70.18
2023-04-15T18:59:28.840Z,70.07
2023-04-15T19:01:58.703Z,71.31
2023-04-15T19:04:29.443Z,71.80
2023-04-15T19:06:59.363Z,71.59
2023-04-15T19:09:28.530Z,71.94
2023-04-15T19:11:57.088Z,71.80
2023-04-15T19:14:25.020Z,71.89
2023-04-15T19:16:52.967Z,71.98
2023-04-15T19:19:20.909Z,72.36
2023-04-15T19:21:52.711Z,72.21
2023-04-15T19:24:20.960Z,71.96
2023-04-15T19:26:51.129Z,71.81
2023-04-15T19:29:19.377Z,72.04
2023-04-15T19:31:47.160Z,72.12
2023-04-15T19:34:17.103Z,72.00
2023-04-15T19:36:45.666Z,72.16
2023-04-15T19:39:14.695Z,72.25
2023-04-15T19:41:44.355Z,72.38
2023-04-15T19:44:13.195Z,72.51
2023-04-15T19:46:45.082Z,72.65
2023-04-15T19:49:13.685Z,72.37
2023-04-15T19:51:42.429Z,72.66
2023-04-15T19:54:10.440Z,72.46
2023-04-15T19:56:38.296Z,72.62
2023-04-15T19:59:06.554Z,72.79
2023-04-15T20:01:35.125Z,72.95
2023-04-15T20:04:04.119Z,72.91
2023-04-15T20:06:32.675Z,73.51
2023-04-15T20:09:01.116Z,73.35
2023-04-15T20:12:05.952Z,73.78
2023-04-15T20:14:21.630Z,73.98
2023-04-15T20:16:49.355Z,74.60
2023-04-15T20:19:17.240Z,75.04
2023-04-15T20:21:45.657Z,75.38
2023-04-15T20:24:13.419Z,75.18
2023-04-15T20:26:41.309Z,75.29
2023-04-15T20:29:09.177Z,75.74
2023-04-15T20:31:37.489Z,75.59
2023-04-15T20:34:05.338Z,75.75
2023-04-15T20:36:33.722Z,76.06
2023-04-15T20:39:01.836Z,76.40
2023-04-15T20:41:29.629Z,77.22
2023-04-15T20:43:57.447Z,78.01
2023-04-15T20:46:27.365Z,78.19
2023-04-15T20:48:56.240Z,78.44
2023-04-15T20:51:24.222Z,78.77
2023-04-15T20:53:52.401Z,79.80
2023-04-15T20:56:20.459Z,79.73
2023-04-15T20:58:48.239Z,79.70
2023-04-15T21:01:16.338Z,79.95
2023-04-15T21:03:44.162Z,80.22
2023-04-15T21:06:12.084Z,80.49
2023-04-15T21:08:40.011Z,80.49
2023-04-15T21:11:08.241Z,80.75
2023-04-15T21:13:36.146Z,80.78
2023-04-15T21:16:04.408Z,81.42
2023-04-15T21:18:32.496Z,81.28
2023-04-15T21:21:01.921Z,81.19
2023-04-15T21:23:31.017Z,81.62
2023-04-15T21:25:59.784Z,81.70
2023-04-15T21:28:30.963Z,82.10
2023-04-15T21:30:59.464Z,82.06
2023-04-15T21:33:27.487Z,82.12
2023-04-15T21:35:55.494Z,82.29
2023-04-15T21:38:23.631Z,82.22
2023-04-15T21:40:51.826Z,82.34
2023-04-15T21:43:21.656Z,82.53
2023-04-15T21:46:21.076Z,82.61
2023-04-15T21:48:37.668Z,82.83
2023-04-15T21:51:06.118Z,82.74
2023-04-15T21:53:33.931Z,82.84
2023-04-15T21:56:02.599Z,82.99
2023-04-15T21:58:30.714Z,82.98
2023-04-15T22:01:00.821Z,83.13
2023-04-15T22:03:34.546Z,83.23
2023-04-15T22:06:05.227Z,83.14
2023-04-15T22:08:41.702Z,83.25
2023-04-15T22:11:23.180Z,83.04
2023-04-15T22:13:51.120Z,83.13
2023-04-15T22:16:19.015Z,83.24
2023-04-15T22:18:46.928Z,83.41
2023-04-15T22:21:15.053Z,83.35
2023-04-15T22:23:45.862Z,83.52
2023-04-15T22:26:13.684Z,83.53
2023-04-15T22:28:41.925Z,83.59
2023-04-15T22:31:10.036Z,83.52
2023-04-15T22:33:39.025Z,83.48
2023-04-15T22:36:07.096Z,83.54
2023-04-15T22:38:34.878Z,83.50
2023-04-15T22:41:03.037Z,83.45
2023-04-15T22:43:31.131Z,83.48
2023-04-15T22:46:00.544Z,83.43
2023-04-15T22:48:28.511Z,83.51
2023-04-15T22:50:56.854Z,83.54
2023-04-15T22:53:26.611Z,83.41
2023-04-15T22:55:54.676Z,83.39
2023-04-15T22:58:22.801Z,83.42
2023-04-15T23:00:50.918Z,83.48
2023-04-15T23:03:18.952Z,83.37
2023-04-15T23:05:46.900Z,83.67
2023-04-15T23:08:14.800Z,83.47
2023-04-15T23:10:44.908Z,83.47
2023-04-15T23:13:12.828Z,83.47
2023-04-15T23:15:40.648Z,83.50
2023-04-15T23:18:08.525Z,83.44
2023-04-15T23:20:36.485Z,83.48
2023-04-15T23:23:04.210Z,83.37
2023-04-15T23:25:34.150Z,83.43
2023-04-15T23:28:02.277Z,83.39
2023-04-15T23:30:30.387Z,83.66
2023-04-15T23:32:58.520Z,83.80
2023-04-15T23:35:27.460Z,83.85
2023-04-15T23:37:55.388Z,83.76
2023-04-15T23:40:23.309Z,83.67
2023-04-15T23:42:51.938Z,83.78
2023-04-15T23:45:19.898Z,84.01
2023-04-15T23:47:47.826Z,83.95
2023-04-15T23:50:15.928Z,83.88
2023-04-15T23:52:43.662Z,83.83
2023-04-15T23:55:11.739Z,83.82
2023-04-15T23:57:40.663Z,83.92
